Elmira, NY (14903)

12:21 PM EDT on August 22, 2014 (GMT -0400)
Harris Hill Gliderport | Change Station
CLOSE
Current Station
Personal Weather Station
Location: National Soaring Museum, Elmira, NY
Elevation: 1710 ft
Nearby Weather Stations

Elev 1710 ft 42.12 °N, 76.90 °W | Updated 13 seconds ago

Partly Cloudy
Partly Cloudy
70.7 °F
Feels Like 70.7 °F
N
6.0
Wind Variable Wind from WNW
Gusts 6.0 mph

Today
High -- | Low -- °F
--% Chance of Precip.
Yesterday
High -- | Low -- °F
Precip. -- in
6:22 AM 7:57 PM
Waning Crescent, 8% visible
Pressure 29.99 in
Visibility 10.0 miles
Clouds Few 8000 ft
Dew Point 67 °F
Humidity 89%
Rainfall 0.00 in
Snow Depth Not available.
UV 8 out of 12
Pollen 7.60 out of 12
Ozone Good
PM2.5 Good
Flu Activity Not available.
METAR KELM 221553Z 22004KT 10SM FEW080 24/21 A3000 RMK AO2 SLP154 T02440206

More Conditions Fewer Conditions

Pressure 29.99 in
Visibility 10.0 miles
Clouds Few 8000 ft
Dew Point 67 °F
Humidity 89%
Rainfall 0.00 in
Snow Depth Not available.
UV 8 out of 12
Pollen 7.60 out of 12
Ozone Good
PM2.5 Good
Flu Activity Not available.
METAR KELM 221553Z 22004KT 10SM FEW080 24/21 A3000 RMK AO2 SLP154 T02440206

More Conditions Fewer Conditions

10-Day Weather Forecast

Almanac

Astronomy

Aug. 22, 2014 Rise Set
Actual Time 6:22 AM EDT 7:57 PM EDT
Civil Twilight 5:52 AM EDT 8:26 PM EDT
Nautical Twilight 5:17 AM EDT 9:02 PM EDT
Astronomical Twilight 4:38 AM EDT 9:40 PM EDT
Moon 3:41 AM EDT 6:05 PM EDT
Length of Visible Light 14h 34m
Length of Day
13h 35m
Tomorrow will be 2m 37s shorter.
Waning Crescent, 8% of the Moon is Illuminated
Today
Waning Crescent
Aug 25
New
Sep 2
First Quarter
Sep 8
Full
Sep 15
Last Quarter

Today's Extremes

State Highs State Lows

Community

WunderPhotos

Upload Photos

1,746,194 photos uploaded!

Nearby

Air Quality

  Air Quality AQ Index Pollutant
Yesterday Good
PM2.5
Yesterday Good
OZONE
Current Good
PM2.5
Current Good
OZONE
Friday Good
OZONE
Friday Good
PM2.5

Snow Depth

Station Depth Elevation
No new snow has been reported.

Earthquake Activity

City Distance Mag. Time & Date
No recent earthquake activity has been reported nearby.
Minimum magnitude displayed is 2.5.

Coastal Water Temperatures

Place Temperature
No Stations Reporting

Nearby Weather Stations